This is the latest recevied weather packets stored in our database for station/object N3TJJ-2. If no packets are shown the sender has not sent any weather packets the latest 10 day(s).
| Time | Temp. | Humidity | Pressure | Rain* | Wind** | Luminosity | Snow |
|---|---|---|---|---|---|---|---|
| 1788383211 | 23.89° C | 59% | 1019.2 hPa | 0.25 mm | - | - | - |
| 1788382874 | 23.89° C | 56% | 1019.2 hPa | 0.51 mm | - | - | - |
| 1788382496 | 23.33° C | 52% | 1019.2 hPa | 0.51 mm | - | - | - |
| 1788382186 | 23.33° C | 56% | 1019.3 hPa | 0.51 mm | - | - | - |
| 1788381790 | 23.89° C | 57% | 1019.2 hPa | 0.51 mm | - | - | - |
| 1788381409 | 23.33° C | 47% | 1019.1 hPa | 0.51 mm | - | - | - |
| 1788381048 | 23.33° C | 38% | 1019.1 hPa | 0.51 mm | - | - | - |
| 1788380688 | 22.78° C | 41% | 1019.1 hPa | 0.51 mm | - | - | - |
| 1788380352 | 22.22° C | 45% | 1019.1 hPa | 0.51 mm | - | - | - |
| 1788380267 | 22.22° C | 46% | 1018.9 hPa | 0.51 mm | - | - | - |
| 1788379837 | 22.78° C | 46% | 1019 hPa | 0.25 mm | - | - | - |
| 1788379264 | 22.22° C | 45% | 1019.6 hPa | 0 mm | - | - | - |
| 1788378922 | 22.22° C | 47% | 1019.8 hPa | 0 mm | - | - | - |
| 1788378539 | 22.22° C | 49% | 1019.9 hPa | 0 mm | - | - | - |
| 1788378196 | 22.22° C | 50% | 1020.1 hPa | 0 mm | - | - | - |
| 1788377818 | 22.22° C | 46% | 1019.8 hPa | 0 mm | - | - | - |
| 1788369922 | 21.11° C | 32% | 1020.5 hPa | 8.89 mm | - | - | - |
| 1788369531 | 21.11° C | 33% | 1020.3 hPa | 8.64 mm | - | - | - |
| 1788369168 | 21.11° C | 35% | 1020.4 hPa | 8.13 mm | - | - | - |
| 1788368809 | 21.11° C | 39% | 1020.9 hPa | 8.13 mm | - | - | - |
| 1788368455 | 21.11° C | 42% | 1021.4 hPa | 7.37 mm | - | - | - |
| 1788368088 | 21.11° C | 47% | 1022.5 hPa | 5.84 mm | - | - | - |
| 1788367737 | 21.67° C | 52% | 1022.9 hPa | 0.76 mm | - | - | - |
| 1788367378 | 22.22° C | 57% | 1022.2 hPa | 0.25 mm | - | - | - |
| 1788367022 | 22.22° C | 60% | 1021.8 hPa | 0 mm | - | - | - |
* Rain latest hour (hover to see other rain measurements)
** Current wind speed in m/s (hover to see current wind gust speed)